createdAt,value
2023-01-26T00:02:08.298Z,1.33
2023-01-26T00:04:41.722Z,1.36
2023-01-26T00:07:16.689Z,1.24
2023-01-26T00:09:49.985Z,1.26
2023-01-26T00:12:23.586Z,1.24
2023-01-26T00:14:57.345Z,1.23
2023-01-26T00:17:30.836Z,1.22
2023-01-26T00:20:04.032Z,1.25
2023-01-26T00:22:38.918Z,1.19
2023-01-26T00:25:12.787Z,1.26
2023-01-26T00:27:45.970Z,1.14
2023-01-26T00:30:19.825Z,1.20
2023-01-26T00:32:53.102Z,1.21
2023-01-26T00:35:26.417Z,1.18
2023-01-26T00:38:01.033Z,1.15
2023-01-26T00:40:34.528Z,1.16
2023-01-26T00:43:07.894Z,1.21
2023-01-26T00:45:41.103Z,1.19
2023-01-26T00:48:14.609Z,1.16
2023-01-26T00:50:47.827Z,1.22
2023-01-26T00:53:22.418Z,1.26
2023-01-26T00:55:58.149Z,1.15
2023-01-26T00:58:31.483Z,1.17
2023-01-26T01:01:05.279Z,1.20
2023-01-26T01:03:38.486Z,1.16
2023-01-26T01:06:11.801Z,0.82
2023-01-26T01:08:46.476Z,1.31
2023-01-26T01:11:20.066Z,1.31
2023-01-26T01:13:53.977Z,1.38
2023-01-26T01:16:28.740Z,1.39
2023-01-26T01:19:02.037Z,1.37
2023-01-26T01:21:36.411Z,1.43
2023-01-26T01:24:11.430Z,1.45
2023-01-26T01:26:45.038Z,1.31
2023-01-26T01:29:18.493Z,1.33
2023-01-26T01:31:51.834Z,1.35
2023-01-26T01:34:25.088Z,1.39
2023-01-26T01:36:58.831Z,1.32
2023-01-26T01:39:33.495Z,1.32
2023-01-26T01:42:07.046Z,1.38
2023-01-26T01:44:40.391Z,1.47
2023-01-26T01:47:19.512Z,1.37
2023-01-26T01:49:55.135Z,1.34
2023-01-26T01:52:32.220Z,1.26
2023-01-26T01:55:11.574Z,1.25
2023-01-26T01:57:53.291Z,1.30
2023-01-26T02:00:27.679Z,1.21
2023-01-26T02:03:16.697Z,1.32
2023-01-26T02:05:57.363Z,1.35
2023-01-26T02:08:34.716Z,1.23
2023-01-26T02:11:12.500Z,1.34
2023-01-26T02:13:49.686Z,1.27
2023-01-26T02:16:23.160Z,1.36
2023-01-26T02:18:56.507Z,1.22
2023-01-26T02:21:31.410Z,1.28
2023-01-26T02:24:17.452Z,1.21
2023-01-26T02:26:52.038Z,1.26
2023-01-26T02:29:25.363Z,1.27
2023-01-26T02:31:59.104Z,1.26
2023-01-26T02:34:32.514Z,1.20
2023-01-26T02:37:05.896Z,1.19
2023-01-26T02:39:47.295Z,1.17
2023-01-26T02:42:41.927Z,1.13
2023-01-26T02:45:17.848Z,1.16
2023-01-26T02:47:51.144Z,1.21
2023-01-26T02:50:23.833Z,1.23
2023-01-26T02:52:57.762Z,1.25
2023-01-26T02:55:31.364Z,1.23
2023-01-26T02:58:06.798Z,1.20
2023-01-26T03:00:42.144Z,1.25
2023-01-26T03:03:19.678Z,1.27
2023-01-26T03:05:53.469Z,1.30
2023-01-26T03:08:27.255Z,1.38
2023-01-26T03:11:00.695Z,1.25
2023-01-26T03:13:36.271Z,1.30
2023-01-26T03:16:12.013Z,1.31
2023-01-26T03:19:02.587Z,1.27
2023-01-26T03:21:52.936Z,1.35
2023-01-26T03:24:52.807Z,1.28
2023-01-26T03:27:29.142Z,1.28
2023-01-26T03:30:03.911Z,1.26
2023-01-26T03:32:37.308Z,1.26
2023-01-26T03:35:15.998Z,1.20
2023-01-26T03:37:54.787Z,1.23
2023-01-26T03:40:46.221Z,1.30
2023-01-26T03:43:36.740Z,1.30
2023-01-26T03:46:29.187Z,1.26
2023-01-26T03:49:20.396Z,1.19
2023-01-26T03:52:11.239Z,1.27
2023-01-26T03:55:02.243Z,1.24
2023-01-26T03:57:35.536Z,1.22
2023-01-26T04:00:10.402Z,1.30
2023-01-26T04:03:03.004Z,1.19
2023-01-26T04:05:54.059Z,1.33
2023-01-26T04:08:28.069Z,1.14
2023-01-26T04:11:01.336Z,1.26
2023-01-26T04:13:52.580Z,1.24
2023-01-26T04:16:43.972Z,1.32
2023-01-26T04:19:36.387Z,1.29
2023-01-26T04:22:09.688Z,1.31
2023-01-26T04:24:43.053Z,1.29
2023-01-26T04:27:16.505Z,1.36
2023-01-26T04:29:50.093Z,1.38
2023-01-26T04:32:23.470Z,1.32
2023-01-26T04:34:58.067Z,1.31
2023-01-26T04:37:31.451Z,1.32
2023-01-26T04:40:05.420Z,1.34
2023-01-26T04:42:38.868Z,1.36
2023-01-26T04:45:12.791Z,1.33
2023-01-26T04:47:46.542Z,1.39
2023-01-26T04:50:21.429Z,1.33
2023-01-26T04:52:54.876Z,1.28
2023-01-26T04:55:28.453Z,1.29
2023-01-26T04:58:03.643Z,1.23
2023-01-26T05:00:37.182Z,1.24
2023-01-26T05:03:10.628Z,1.20
2023-01-26T05:05:46.068Z,1.18
2023-01-26T05:08:20.569Z,1.21
2023-01-26T05:10:53.843Z,1.29
2023-01-26T05:13:27.734Z,1.27
2023-01-26T05:16:01.320Z,1.29
2023-01-26T05:18:35.466Z,1.23
2023-01-26T05:21:12.104Z,1.34
2023-01-26T05:23:45.324Z,1.36
2023-01-26T05:26:18.833Z,1.27
2023-01-26T05:28:52.037Z,1.37
2023-01-26T05:31:25.606Z,1.36
2023-01-26T05:33:59.104Z,1.44
2023-01-26T05:36:33.749Z,1.27
2023-01-26T05:39:07.143Z,1.41
2023-01-26T05:41:40.527Z,1.36
2023-01-26T05:44:13.862Z,1.34
2023-01-26T05:46:47.290Z,1.33
2023-01-26T05:49:21.223Z,1.28
2023-01-26T05:51:56.078Z,1.11
2023-01-26T05:54:29.244Z,1.01
2023-01-26T05:57:02.433Z,0.99
2023-01-26T05:59:35.757Z,1.02
2023-01-26T06:02:09.074Z,1.09
2023-01-26T06:04:42.585Z,1.05
2023-01-26T06:07:18.848Z,1.09
2023-01-26T06:09:52.121Z,0.98
2023-01-26T06:12:25.351Z,1.03
2023-01-26T06:14:58.882Z,0.96
2023-01-26T06:17:32.176Z,0.94
2023-01-26T06:20:06.611Z,0.99
2023-01-26T06:22:41.500Z,0.99
2023-01-26T06:25:14.788Z,0.98
2023-01-26T06:27:48.277Z,1.13
2023-01-26T06:30:21.987Z,1.08
2023-01-26T06:32:55.279Z,1.08
2023-01-26T06:35:28.994Z,1.12
2023-01-26T06:38:04.109Z,1.10
2023-01-26T06:40:37.525Z,1.02
2023-01-26T06:43:11.104Z,0.99
2023-01-26T06:45:44.295Z,0.94
2023-01-26T06:48:17.504Z,0.96
2023-01-26T06:50:52.655Z,0.97
2023-01-26T06:53:35.232Z,1.05
2023-01-26T06:56:08.703Z,1.06
2023-01-26T06:58:42.274Z,1.16
2023-01-26T07:01:17.685Z,1.06
2023-01-26T07:03:51.661Z,1.12
2023-01-26T07:06:25.242Z,0.91
2023-01-26T07:09:00.480Z,1.04
2023-01-26T07:11:33.883Z,1.13
2023-01-26T07:14:07.475Z,1.06
2023-01-26T07:16:41.340Z,1.10
2023-01-26T07:19:15.187Z,1.12
2023-01-26T07:21:49.636Z,1.07
2023-01-26T07:24:24.339Z,1.06
2023-01-26T07:26:58.943Z,1.14
2023-01-26T07:29:32.364Z,1.19
2023-01-26T07:32:06.630Z,1.14
2023-01-26T07:34:40.115Z,1.23
2023-01-26T07:37:13.495Z,1.31
2023-01-26T07:39:49.145Z,1.32
2023-01-26T07:42:22.723Z,1.34
2023-01-26T07:44:56.040Z,1.39
2023-01-26T07:47:29.521Z,1.41
2023-01-26T07:50:03.028Z,1.34
2023-01-26T07:52:36.656Z,1.46
2023-01-26T07:55:11.484Z,1.39
2023-01-26T07:57:44.790Z,1.36
2023-01-26T08:00:19.488Z,1.48
2023-01-26T08:02:52.796Z,1.56
2023-01-26T08:05:26.200Z,1.49
2023-01-26T08:08:00.595Z,1.39
2023-01-26T08:10:35.466Z,1.39
2023-01-26T08:13:10.480Z,1.25
2023-01-26T08:15:44.094Z,1.37
2023-01-26T08:18:17.454Z,1.43
2023-01-26T08:20:52.276Z,1.37
2023-01-26T08:23:25.838Z,1.19
2023-01-26T08:26:04.080Z,1.47
2023-01-26T08:28:38.008Z,1.63
2023-01-26T08:31:12.435Z,1.58
2023-01-26T08:33:46.566Z,1.46
2023-01-26T08:36:22.584Z,1.32
2023-01-26T08:38:56.098Z,1.32
2023-01-26T08:41:31.449Z,1.31
2023-01-26T08:44:04.830Z,1.49
2023-01-26T08:46:38.229Z,1.58
2023-01-26T08:49:11.857Z,1.62
2023-01-26T08:51:45.172Z,1.62
2023-01-26T08:54:18.431Z,1.55
2023-01-26T08:56:54.665Z,1.49
2023-01-26T08:59:28.226Z,1.59
2023-01-26T09:02:01.462Z,1.66
2023-01-26T09:04:35.143Z,1.50
2023-01-26T09:07:08.936Z,1.62
2023-01-26T09:09:42.207Z,1.48
2023-01-26T09:12:17.667Z,1.61
2023-01-26T09:14:51.541Z,1.61
2023-01-26T09:17:24.856Z,1.59
2023-01-26T09:19:58.326Z,1.51
2023-01-26T09:22:32.119Z,1.66
2023-01-26T09:25:06.453Z,1.62
2023-01-26T09:27:41.200Z,1.63
2023-01-26T09:30:15.452Z,1.52
2023-01-26T09:32:48.805Z,1.41
2023-01-26T09:35:22.290Z,1.49
2023-01-26T09:37:56.047Z,1.58
2023-01-26T09:40:40.036Z,1.66
2023-01-26T09:43:26.150Z,1.53
2023-01-26T09:46:10.058Z,1.54
2023-01-26T09:48:50.424Z,1.52
2023-01-26T09:51:29.449Z,1.55
2023-01-26T09:54:07.112Z,1.38
2023-01-26T09:56:41.213Z,1.52
2023-01-26T09:59:25.384Z,1.33
2023-01-26T10:02:06.638Z,1.32
2023-01-26T10:04:44.617Z,1.06
2023-01-26T10:07:18.082Z,1.32
2023-01-26T10:09:53.433Z,1.43
2023-01-26T10:12:31.614Z,1.47
2023-01-26T10:15:17.330Z,1.43
2023-01-26T10:17:55.065Z,1.33
2023-01-26T10:20:32.847Z,1.25
2023-01-26T10:23:13.253Z,1.16
2023-01-26T10:25:48.067Z,1.24
2023-01-26T10:28:28.928Z,1.32
2023-01-26T10:31:08.380Z,1.32
2023-01-26T10:33:50.148Z,1.18
2023-01-26T10:36:24.476Z,0.99
2023-01-26T10:39:05.519Z,1.12
2023-01-26T10:41:39.277Z,1.21
2023-01-26T10:44:26.639Z,1.10
2023-01-26T10:47:07.827Z,1.14
2023-01-26T10:49:41.246Z,1.09
2023-01-26T10:52:18.597Z,1.09
2023-01-26T10:55:10.634Z,1.14
2023-01-26T10:57:44.348Z,1.18
2023-01-26T11:00:25.849Z,1.20
2023-01-26T11:03:08.089Z,1.28
2023-01-26T11:05:41.331Z,1.19
2023-01-26T11:08:33.945Z,1.07
2023-01-26T11:11:10.566Z,1.19
2023-01-26T11:13:44.822Z,1.01
2023-01-26T11:16:21.435Z,1.19
2023-01-26T11:19:00.842Z,1.21
2023-01-26T11:21:41.530Z,1.12
2023-01-26T11:24:23.303Z,1.12
2023-01-26T11:27:23.841Z,1.12
2023-01-26T11:30:24.564Z,1.21
2023-01-26T11:33:02.559Z,1.06
2023-01-26T11:35:52.613Z,1.25
2023-01-26T11:38:41.328Z,1.33
2023-01-26T11:41:31.340Z,1.25
2023-01-26T11:44:52.023Z,1.06
2023-01-26T11:47:40.880Z,1.20
2023-01-26T11:50:29.828Z,1.00
2023-01-26T11:53:28.212Z,1.10
2023-01-26T11:56:22.398Z,1.13
2023-01-26T11:58:59.896Z,1.16
2023-01-26T12:01:39.323Z,1.22
2023-01-26T12:04:19.187Z,1.14
2023-01-26T12:06:59.129Z,1.17
2023-01-26T12:09:38.740Z,1.18
2023-01-26T12:12:19.197Z,1.19
2023-01-26T12:14:58.807Z,1.07
2023-01-26T12:17:41.955Z,1.02
2023-01-26T12:20:30.213Z,0.96
2023-01-26T12:23:07.107Z,1.07
2023-01-26T12:25:46.497Z,1.18
2023-01-26T12:28:24.104Z,1.23
2023-01-26T12:31:05.557Z,1.18
2023-01-26T12:33:39.579Z,1.16
2023-01-26T12:36:24.276Z,1.10
2023-01-26T12:39:13.976Z,1.14
2023-01-26T12:42:15.216Z,1.08
2023-01-26T12:44:53.690Z,1.11
2023-01-26T12:47:31.697Z,1.20
2023-01-26T12:50:12.795Z,1.22
2023-01-26T12:52:50.372Z,1.20
2023-01-26T12:55:27.777Z,1.20
2023-01-26T12:58:05.131Z,0.94
2023-01-26T13:00:40.378Z,1.26
2023-01-26T13:03:20.025Z,1.21
2023-01-26T13:05:58.711Z,1.25
2023-01-26T13:08:53.605Z,1.19
2023-01-26T13:11:48.739Z,1.10
2023-01-26T13:14:33.302Z,1.23
2023-01-26T13:17:50.174Z,1.19
2023-01-26T13:20:49.416Z,1.21
2023-01-26T13:23:43.593Z,1.19
2023-01-26T13:26:44.532Z,1.20
2023-01-26T13:29:54.151Z,1.13
2023-01-26T13:33:05.936Z,1.11
2023-01-26T13:35:40.212Z,1.09
2023-01-26T13:38:29.150Z,1.11
2023-01-26T13:41:07.999Z,1.23
2023-01-26T13:43:45.461Z,1.06
2023-01-26T13:46:26.688Z,0.91
2023-01-26T13:49:00.013Z,1.12
2023-01-26T13:51:35.649Z,1.20
2023-01-26T13:54:14.567Z,1.25
2023-01-26T13:57:03.280Z,1.17
2023-01-26T13:59:50.171Z,1.30
2023-01-26T14:02:27.142Z,1.21
2023-01-26T14:05:02.081Z,1.19
2023-01-26T14:07:39.489Z,1.14
2023-01-26T14:10:19.639Z,1.28
2023-01-26T14:12:56.764Z,1.16
2023-01-26T14:15:33.864Z,1.17
2023-01-26T14:18:22.264Z,1.12
2023-01-26T14:21:05.145Z,1.15
2023-01-26T14:23:38.553Z,1.19
2023-01-26T14:26:20.073Z,1.22
2023-01-26T14:28:53.399Z,1.23
2023-01-26T14:31:28.128Z,1.28
2023-01-26T14:34:02.727Z,1.26
2023-01-26T14:36:39.355Z,1.33
2023-01-26T14:39:19.136Z,1.29
2023-01-26T14:41:52.464Z,1.31
2023-01-26T14:44:25.631Z,1.28
2023-01-26T14:47:03.623Z,1.35
2023-01-26T14:49:45.994Z,1.36
2023-01-26T14:52:25.327Z,1.36
2023-01-26T14:55:00.815Z,1.38
2023-01-26T14:57:34.629Z,1.34
2023-01-26T15:00:21.106Z,1.31
2023-01-26T15:02:56.800Z,1.29
2023-01-26T15:05:35.660Z,1.34
2023-01-26T15:08:21.088Z,1.33
2023-01-26T15:11:16.473Z,1.37
2023-01-26T15:13:54.154Z,1.34
2023-01-26T15:16:28.089Z,1.33
2023-01-26T15:19:01.968Z,1.35
2023-01-26T15:21:39.842Z,1.36
2023-01-26T15:24:15.976Z,1.25
2023-01-26T15:26:51.603Z,1.36
2023-01-26T15:29:26.747Z,1.37
2023-01-26T15:32:00.338Z,1.38
2023-01-26T15:34:37.459Z,1.41
2023-01-26T15:37:29.759Z,1.38
2023-01-26T15:40:04.113Z,1.39
2023-01-26T15:42:37.868Z,1.44
2023-01-26T15:45:23.614Z,1.38
2023-01-26T15:47:57.114Z,1.33
2023-01-26T15:50:30.399Z,1.37
2023-01-26T15:53:05.298Z,1.43
2023-01-26T15:55:38.947Z,1.43
2023-01-26T15:58:12.400Z,1.45
2023-01-26T16:00:45.751Z,1.48
2023-01-26T16:03:22.238Z,1.33
2023-01-26T16:05:56.035Z,1.52
2023-01-26T16:08:30.853Z,1.56
2023-01-26T16:11:03.841Z,1.58
2023-01-26T16:13:37.510Z,1.60
2023-01-26T16:16:11.800Z,1.61
2023-01-26T16:18:45.457Z,1.59
2023-01-26T16:21:19.781Z,1.59
2023-01-26T16:23:55.023Z,1.63
2023-01-26T16:26:29.110Z,1.63
2023-01-26T16:29:02.307Z,1.74
2023-01-26T16:31:37.006Z,1.59
2023-01-26T16:34:11.341Z,1.66
2023-01-26T16:36:44.820Z,1.65
2023-01-26T16:39:19.757Z,1.66
2023-01-26T16:41:53.453Z,1.59
2023-01-26T16:44:26.736Z,1.68
2023-01-26T16:46:59.942Z,1.62
2023-01-26T16:49:33.953Z,1.65
2023-01-26T16:52:09.019Z,1.64
2023-01-26T16:54:45.669Z,1.62
2023-01-26T16:57:18.984Z,1.58
2023-01-26T16:59:52.036Z,1.63
2023-01-26T17:02:28.713Z,1.60
2023-01-26T17:05:01.946Z,1.43
2023-01-26T17:07:35.467Z,1.52
2023-01-26T17:10:12.256Z,1.42
2023-01-26T17:12:46.244Z,1.57
2023-01-26T17:15:19.815Z,1.55
2023-01-26T17:17:53.392Z,1.53
2023-01-26T17:20:27.185Z,1.51
2023-01-26T17:23:00.955Z,1.50
2023-01-26T17:25:35.849Z,1.47
2023-01-26T17:28:09.028Z,1.51
2023-01-26T17:30:42.212Z,1.49
2023-01-26T17:33:15.407Z,1.55
2023-01-26T17:35:48.887Z,1.56
2023-01-26T17:38:22.312Z,1.60
2023-01-26T17:40:57.755Z,1.55
2023-01-26T17:43:32.087Z,1.61
2023-01-26T17:46:07.975Z,1.60
2023-01-26T17:48:44.182Z,1.56
2023-01-26T17:51:19.796Z,1.59
2023-01-26T17:53:54.302Z,1.60
2023-01-26T17:56:30.829Z,1.62
2023-01-26T17:59:04.445Z,1.66
2023-01-26T18:01:37.898Z,1.60
2023-01-26T18:04:11.097Z,1.67
2023-01-26T18:06:44.392Z,1.70
2023-01-26T18:09:17.707Z,1.66
2023-01-26T18:11:52.833Z,1.69
2023-01-26T18:14:26.551Z,1.66
2023-01-26T18:16:59.900Z,1.72
2023-01-26T18:19:33.184Z,1.71
2023-01-26T18:22:06.516Z,1.67
2023-01-26T18:24:40.421Z,1.73
2023-01-26T18:27:15.493Z,1.69
2023-01-26T18:29:49.182Z,1.69
2023-01-26T18:32:22.494Z,1.73
2023-01-26T18:34:56.733Z,1.77
2023-01-26T18:37:32.999Z,1.78
2023-01-26T18:40:09.812Z,1.78
2023-01-26T18:42:46.274Z,1.81
2023-01-26T18:45:21.078Z,1.81
2023-01-26T18:47:55.038Z,1.81
2023-01-26T18:50:28.636Z,1.80
2023-01-26T18:53:03.655Z,1.81
2023-01-26T18:55:38.236Z,1.74
2023-01-26T18:58:13.419Z,1.77
2023-01-26T19:00:46.989Z,1.80
2023-01-26T19:03:20.854Z,1.71
2023-01-26T19:05:54.403Z,1.62
2023-01-26T19:08:28.897Z,1.76
2023-01-26T19:11:06.971Z,1.68
2023-01-26T19:13:43.543Z,1.69
2023-01-26T19:16:17.417Z,1.74
2023-01-26T19:18:52.439Z,1.64
2023-01-26T19:21:27.786Z,1.66
2023-01-26T19:24:02.722Z,1.62
2023-01-26T19:26:36.408Z,1.65
2023-01-26T19:29:12.021Z,1.61
2023-01-26T19:31:45.882Z,1.66
2023-01-26T19:34:19.485Z,1.54
2023-01-26T19:36:53.464Z,1.64
2023-01-26T19:39:27.284Z,1.77
2023-01-26T19:42:00.665Z,1.84
2023-01-26T19:44:35.473Z,1.78
2023-01-26T19:47:09.164Z,1.67
2023-01-26T19:49:42.718Z,1.67
2023-01-26T19:52:16.332Z,1.66
2023-01-26T19:54:50.834Z,1.64
2023-01-26T19:57:25.819Z,1.62
2023-01-26T20:00:01.185Z,1.60
2023-01-26T20:02:35.662Z,1.63
2023-01-26T20:05:13.047Z,1.58
2023-01-26T20:07:48.026Z,1.67
2023-01-26T20:10:22.003Z,1.64
2023-01-26T20:12:57.510Z,1.52
2023-01-26T20:15:35.559Z,1.58
2023-01-26T20:18:09.261Z,1.56
2023-01-26T20:20:42.980Z,1.60
2023-01-26T20:23:16.553Z,1.45
2023-01-26T20:25:51.615Z,1.42
2023-01-26T20:28:25.275Z,1.46
2023-01-26T20:31:06.862Z,1.45
2023-01-26T20:33:40.858Z,1.44
2023-01-26T20:36:17.683Z,1.42
2023-01-26T20:38:51.585Z,1.38
2023-01-26T20:41:27.387Z,1.34
2023-01-26T20:44:02.796Z,1.44
2023-01-26T20:46:40.320Z,1.42
2023-01-26T20:49:17.015Z,1.42
2023-01-26T20:51:50.489Z,1.38
2023-01-26T20:54:24.065Z,1.36
2023-01-26T20:56:57.576Z,1.35
2023-01-26T20:59:31.176Z,1.25
2023-01-26T21:02:06.678Z,1.30
2023-01-26T21:04:40.635Z,1.35
2023-01-26T21:07:14.008Z,1.31
2023-01-26T21:09:47.209Z,1.32
2023-01-26T21:12:21.218Z,1.29
2023-01-26T21:14:55.181Z,1.23
2023-01-26T21:17:30.125Z,0.97
2023-01-26T21:20:03.403Z,1.24
2023-01-26T21:22:36.820Z,1.20
2023-01-26T21:25:11.496Z,0.99
2023-01-26T21:27:44.647Z,1.17
2023-01-26T21:30:18.806Z,1.15
2023-01-26T21:32:53.878Z,1.14
2023-01-26T21:35:27.755Z,1.11
2023-01-26T21:38:01.445Z,1.16
2023-01-26T21:40:34.548Z,1.10
2023-01-26T21:43:08.104Z,1.04
2023-01-26T21:45:56.393Z,1.09
2023-01-26T21:48:35.976Z,1.10
2023-01-26T21:51:27.243Z,1.11
2023-01-26T21:54:00.869Z,1.04
2023-01-26T21:56:35.283Z,1.06
2023-01-26T21:59:10.631Z,1.09
2023-01-26T22:01:46.381Z,1.18
2023-01-26T22:04:24.002Z,1.21
2023-01-26T22:06:58.198Z,1.27
2023-01-26T22:09:31.571Z,1.26
2023-01-26T22:12:05.921Z,1.24
2023-01-26T22:14:39.779Z,1.23
2023-01-26T22:17:13.604Z,1.22
2023-01-26T22:19:48.672Z,1.14
2023-01-26T22:22:22.179Z,1.10
2023-01-26T22:24:55.497Z,1.10
2023-01-26T22:27:29.149Z,1.04
2023-01-26T22:30:02.933Z,1.02
2023-01-26T22:32:36.258Z,1.17
2023-01-26T22:35:11.274Z,1.11
2023-01-26T22:37:44.790Z,1.10
2023-01-26T22:40:17.881Z,1.16
2023-01-26T22:42:52.226Z,1.09
2023-01-26T22:45:25.585Z,1.15
2023-01-26T22:47:58.854Z,1.08
2023-01-26T22:50:33.487Z,1.12
2023-01-26T22:53:06.905Z,1.10
2023-01-26T22:55:42.307Z,0.99
2023-01-26T22:58:15.416Z,1.16
2023-01-26T23:00:48.581Z,1.09
2023-01-26T23:03:22.654Z,1.14
2023-01-26T23:06:01.235Z,1.11
2023-01-26T23:08:35.238Z,1.14
2023-01-26T23:11:10.488Z,1.18
2023-01-26T23:13:45.398Z,1.18
2023-01-26T23:16:21.363Z,1.28
2023-01-26T23:18:57.388Z,1.30
2023-01-26T23:21:32.467Z,1.29
2023-01-26T23:24:06.399Z,1.19
2023-01-26T23:26:39.772Z,1.13
2023-01-26T23:29:12.940Z,1.30
2023-01-26T23:31:46.156Z,1.25
2023-01-26T23:34:19.611Z,1.23
2023-01-26T23:36:54.445Z,1.17
2023-01-26T23:39:27.870Z,1.11
2023-01-26T23:42:01.086Z,1.12
2023-01-26T23:44:34.346Z,1.18
2023-01-26T23:47:07.457Z,1.14
2023-01-26T23:49:40.717Z,1.21
2023-01-26T23:52:15.318Z,1.22
2023-01-26T23:54:48.877Z,1.24
2023-01-26T23:57:22.178Z,1.20
2023-01-26T23:59:55.297Z,1.20
